sensor_id;sensor_type;location;lat;lon;timestamp;pressure;altitude;pressure_sealevel;temperature;humidity
23281;BME280;11809;56.390;-3.266;2022-10-26T00:01:15;99951.53;;;16.27;67.24
23281;BME280;11809;56.390;-3.266;2022-10-26T00:03:44;99950.66;;;16.27;67.32
23281;BME280;11809;56.390;-3.266;2022-10-26T00:06:19;99948.88;;;16.27;67.26
23281;BME280;11809;56.390;-3.266;2022-10-26T00:08:47;99938.41;;;16.26;67.25
23281;BME280;11809;56.390;-3.266;2022-10-26T00:11:14;99932.13;;;16.27;67.45
23281;BME280;11809;56.390;-3.266;2022-10-26T00:13:42;99919.94;;;16.24;67.38
23281;BME280;11809;56.390;-3.266;2022-10-26T00:16:21;99929.91;;;16.21;67.45
23281;BME280;11809;56.390;-3.266;2022-10-26T00:18:49;99931.84;;;16.19;67.30
23281;BME280;11809;56.390;-3.266;2022-10-26T00:21:16;99937.13;;;16.19;67.37
23281;BME280;11809;56.390;-3.266;2022-10-26T00:23:43;99930.88;;;16.20;67.45
23281;BME280;11809;56.390;-3.266;2022-10-26T00:26:10;99926.53;;;16.19;67.48
23281;BME280;11809;56.390;-3.266;2022-10-26T00:28:37;99918.50;;;16.20;67.57
23281;BME280;11809;56.390;-3.266;2022-10-26T00:31:07;99915.94;;;16.19;67.52
23281;BME280;11809;56.390;-3.266;2022-10-26T00:33:34;99918.72;;;16.17;67.53
23281;BME280;11809;56.390;-3.266;2022-10-26T00:36:01;99916.16;;;16.16;67.64
23281;BME280;11809;56.390;-3.266;2022-10-26T00:38:29;99919.56;;;16.18;67.57
23281;BME280;11809;56.390;-3.266;2022-10-26T00:40:56;99904.69;;;16.15;67.58
23281;BME280;11809;56.390;-3.266;2022-10-26T00:43:42;99903.03;;;16.14;67.52
23281;BME280;11809;56.390;-3.266;2022-10-26T00:46:17;99899.53;;;16.14;67.54
23281;BME280;11809;56.390;-3.266;2022-10-26T00:48:49;99901.56;;;16.10;67.62
23281;BME280;11809;56.390;-3.266;2022-10-26T00:51:19;99886.50;;;16.11;67.74
23281;BME280;11809;56.390;-3.266;2022-10-26T00:53:49;99887.34;;;16.11;67.51
23281;BME280;11809;56.390;-3.266;2022-10-26T00:56:17;99880.13;;;16.13;67.52
23281;BME280;11809;56.390;-3.266;2022-10-26T00:58:44;99869.75;;;16.10;67.51
23281;BME280;11809;56.390;-3.266;2022-10-26T01:01:12;99876.75;;;16.11;67.61
23281;BME280;11809;56.390;-3.266;2022-10-26T01:03:39;99863.63;;;16.10;67.62
23281;BME280;11809;56.390;-3.266;2022-10-26T01:06:07;99860.84;;;16.11;67.48
23281;BME280;11809;56.390;-3.266;2022-10-26T01:08:33;99841.56;;;16.09;67.76
23281;BME280;11809;56.390;-3.266;2022-10-26T01:11:00;99834.56;;;16.08;67.58
23281;BME280;11809;56.390;-3.266;2022-10-26T01:13:30;99834.56;;;16.08;67.53
23281;BME280;11809;56.390;-3.266;2022-10-26T01:18:59;99823.25;;;16.06;67.66
23281;BME280;11809;56.390;-3.266;2022-10-26T01:21:46;99808.28;;;16.05;67.72
23281;BME280;11809;56.390;-3.266;2022-10-26T01:32:32;99785.75;;;16.00;67.81
23281;BME280;11809;56.390;-3.266;2022-10-26T01:35:07;99787.44;;;16.01;67.91
23281;BME280;11809;56.390;-3.266;2022-10-26T01:37:40;99783.09;;;16.00;67.87
23281;BME280;11809;56.390;-3.266;2022-10-26T01:40:15;99776.13;;;15.99;67.85
23281;BME280;11809;56.390;-3.266;2022-10-26T01:42:49;99771.66;;;15.99;67.92
23281;BME280;11809;56.390;-3.266;2022-10-26T01:45:17;99767.31;;;15.98;67.71
23281;BME280;11809;56.390;-3.266;2022-10-26T01:47:46;99764.81;;;15.97;67.93
23281;BME280;11809;56.390;-3.266;2022-10-26T01:50:14;99762.97;;;15.97;68.08
23281;BME280;11809;56.390;-3.266;2022-10-26T01:52:41;99748.16;;;15.95;67.94
23281;BME280;11809;56.390;-3.266;2022-10-26T02:04:09;99717.44;;;15.92;68.05
23281;BME280;11809;56.390;-3.266;2022-10-26T02:07:00;99706.84;;;15.92;67.96
23281;BME280;11809;56.390;-3.266;2022-10-26T02:09:32;99700.81;;;15.90;67.83
23281;BME280;11809;56.390;-3.266;2022-10-26T02:12:12;99684.91;;;15.90;67.93
23281;BME280;11809;56.390;-3.266;2022-10-26T02:14:49;99681.31;;;15.91;67.88
23281;BME280;11809;56.390;-3.266;2022-10-26T02:17:32;99682.28;;;15.90;67.89
23281;BME280;11809;56.390;-3.266;2022-10-26T02:20:06;99666.59;;;15.87;68.28
23281;BME280;11809;56.390;-3.266;2022-10-26T02:22:43;99668.31;;;15.88;67.99
23281;BME280;11809;56.390;-3.266;2022-10-26T02:25:16;99662.25;;;15.86;68.16
23281;BME280;11809;56.390;-3.266;2022-10-26T02:27:49;99666.59;;;15.87;68.12
23281;BME280;11809;56.390;-3.266;2022-10-26T02:30:18;99651.66;;;15.86;67.92
23281;BME280;11809;56.390;-3.266;2022-10-26T02:32:49;99644.78;;;15.84;68.06
23281;BME280;11809;56.390;-3.266;2022-10-26T02:35:20;99630.59;;;15.85;68.06
23281;BME280;11809;56.390;-3.266;2022-10-26T02:37:51;99628.09;;;15.83;68.21
23281;BME280;11809;56.390;-3.266;2022-10-26T02:40:22;99634.31;;;15.82;68.11
23281;BME280;11809;56.390;-3.266;2022-10-26T02:42:50;99620.22;;;15.82;68.26
23281;BME280;11809;56.390;-3.266;2022-10-26T02:45:23;99620.13;;;15.83;68.15
23281;BME280;11809;56.390;-3.266;2022-10-26T02:47:51;99611.34;;;15.83;68.08
23281;BME280;11809;56.390;-3.266;2022-10-26T02:50:25;99611.34;;;15.83;68.06
23281;BME280;11809;56.390;-3.266;2022-10-26T02:53:10;99605.41;;;15.79;68.07
23281;BME280;11809;56.390;-3.266;2022-10-26T02:55:46;99607.13;;;15.80;68.30
23281;BME280;11809;56.390;-3.266;2022-10-26T02:58:26;99602.78;;;15.79;68.06
23281;BME280;11809;56.390;-3.266;2022-10-26T03:00:56;99593.88;;;15.80;68.16
23281;BME280;11809;56.390;-3.266;2022-10-26T03:03:23;99585.94;;;15.80;68.23
23281;BME280;11809;56.390;-3.266;2022-10-26T03:05:50;99577.25;;;15.78;68.28
23281;BME280;11809;56.390;-3.266;2022-10-26T03:08:17;99568.34;;;15.79;68.22
23281;BME280;11809;56.390;-3.266;2022-10-26T03:10:47;99558.59;;;15.80;68.22
23281;BME280;11809;56.390;-3.266;2022-10-26T03:13:14;99556.06;;;15.78;68.17
23281;BME280;11809;56.390;-3.266;2022-10-26T03:15:41;99545.47;;;15.78;68.37
23281;BME280;11809;56.390;-3.266;2022-10-26T03:18:08;99534.97;;;15.76;68.27
23281;BME280;11809;56.390;-3.266;2022-10-26T03:20:34;99528.84;;;15.76;68.37
23281;BME280;11809;56.390;-3.266;2022-10-26T03:23:01;99527.03;;;15.76;68.26
23281;BME280;11809;56.390;-3.266;2022-10-26T03:25:28;99529.81;;;15.75;68.24
23281;BME280;11809;56.390;-3.266;2022-10-26T03:27:57;99528.97;;;15.74;68.33
23281;BME280;11809;56.390;-3.266;2022-10-26T03:30:24;99529.81;;;15.75;68.23
23281;BME280;11809;56.390;-3.266;2022-10-26T03:32:52;99520.31;;;15.72;68.16
23281;BME280;11809;56.390;-3.266;2022-10-26T03:35:19;99515.13;;;15.71;68.28
23281;BME280;11809;56.390;-3.266;2022-10-26T03:37:46;99513.31;;;15.71;68.35
23281;BME280;11809;56.390;-3.266;2022-10-26T03:40:14;99510.81;;;15.70;68.51
23281;BME280;11809;56.390;-3.266;2022-10-26T03:42:41;99508.16;;;15.70;68.25
23281;BME280;11809;56.390;-3.266;2022-10-26T03:45:08;99508.16;;;15.70;68.34
23281;BME280;11809;56.390;-3.266;2022-10-26T03:47:46;99500.22;;;15.70;68.43
23281;BME280;11809;56.390;-3.266;2022-10-26T03:50:15;99479.97;;;15.69;68.25
23281;BME280;11809;56.390;-3.266;2022-10-26T03:52:43;99484.31;;;15.70;68.23
23281;BME280;11809;56.390;-3.266;2022-10-26T03:55:10;99493.22;;;15.69;68.30
23281;BME280;11809;56.390;-3.266;2022-10-26T03:57:40;99476.47;;;15.68;68.42
23281;BME280;11809;56.390;-3.266;2022-10-26T04:00:12;99468.66;;;15.67;68.37
23281;BME280;11809;56.390;-3.266;2022-10-26T04:02:41;99460.72;;;15.67;68.28
23281;BME280;11809;56.390;-3.266;2022-10-26T04:05:09;99473.97;;;15.67;68.50
23281;BME280;11809;56.390;-3.266;2022-10-26T04:07:35;99459.16;;;15.64;68.38
23281;BME280;11809;56.390;-3.266;2022-10-26T04:10:03;99448.44;;;15.66;68.26
23281;BME280;11809;56.390;-3.266;2022-10-26T04:12:30;99450.13;;;15.67;68.33
23281;BME280;11809;56.390;-3.266;2022-10-26T04:14:57;99435.19;;;15.66;68.35
23281;BME280;11809;56.390;-3.266;2022-10-26T04:17:24;99430.03;;;15.64;68.39
23281;BME280;11809;56.390;-3.266;2022-10-26T04:19:51;99428.19;;;15.65;68.48
23281;BME280;11809;56.390;-3.266;2022-10-26T04:22:18;99420.25;;;15.65;68.31
23281;BME280;11809;56.390;-3.266;2022-10-26T04:24:44;99424.72;;;15.64;68.37
23281;BME280;11809;56.390;-3.266;2022-10-26T04:27:11;99426.53;;;15.64;68.29
23281;BME280;11809;56.390;-3.266;2022-10-26T04:29:38;99422.19;;;15.63;68.63
23281;BME280;11809;56.390;-3.266;2022-10-26T04:32:05;99417.88;;;15.62;68.58
23281;BME280;11809;56.390;-3.266;2022-10-26T04:34:32;99417.88;;;15.62;68.56
23281;BME280;11809;56.390;-3.266;2022-10-26T04:36:59;99414.25;;;15.63;68.43
23281;BME280;11809;56.390;-3.266;2022-10-26T04:39:26;99421.34;;;15.62;68.75
23281;BME280;11809;56.390;-3.266;2022-10-26T04:41:53;99418.69;;;15.62;68.71
23281;BME280;11809;56.390;-3.266;2022-10-26T04:44:20;99416.66;;;15.66;68.65
23281;BME280;11809;56.390;-3.266;2022-10-26T04:46:47;99408.69;;;15.66;69.03
23281;BME280;11809;56.390;-3.266;2022-10-26T04:49:14;99406.06;;;15.66;68.96
23281;BME280;11809;56.390;-3.266;2022-10-26T04:51:41;99404.34;;;15.65;69.28
23281;BME280;11809;56.390;-3.266;2022-10-26T04:54:08;99400.88;;;15.64;69.25
23281;BME280;11809;56.390;-3.266;2022-10-26T04:56:35;99397.41;;;15.64;69.25
23281;BME280;11809;56.390;-3.266;2022-10-26T04:59:02;99388.59;;;15.63;69.05
23281;BME280;11809;56.390;-3.266;2022-10-26T05:01:30;99391.13;;;15.65;69.07
23281;BME280;11809;56.390;-3.266;2022-10-26T05:03:57;99378.00;;;15.63;68.88
23281;BME280;11809;56.390;-3.266;2022-10-26T05:06:24;99371.63;;;15.66;69.30
23281;BME280;11809;56.390;-3.266;2022-10-26T05:08:51;99374.28;;;15.66;69.06
23281;BME280;11809;56.390;-3.266;2022-10-26T05:11:17;99371.63;;;15.66;68.97
23281;BME280;11809;56.390;-3.266;2022-10-26T05:13:46;99373.41;;;15.65;68.92
23281;BME280;11809;56.390;-3.266;2022-10-26T05:16:14;99365.22;;;15.68;69.15
23281;BME280;11809;56.390;-3.266;2022-10-26T05:18:41;99365.13;;;15.70;69.23
23281;BME280;11809;56.390;-3.266;2022-10-26T05:21:08;99355.00;;;15.75;69.19
23281;BME280;11809;56.390;-3.266;2022-10-26T05:23:35;99338.84;;;15.78;69.27
23281;BME280;11809;56.390;-3.266;2022-10-26T05:26:02;99353.50;;;15.82;69.63
23281;BME280;11809;56.390;-3.266;2022-10-26T05:28:30;99355.91;;;15.85;69.61
23281;BME280;11809;56.390;-3.266;2022-10-26T05:30:57;99355.53;;;15.90;69.61
23281;BME280;11809;56.390;-3.266;2022-10-26T05:33:24;99350.22;;;15.90;69.87
23281;BME280;11809;56.390;-3.266;2022-10-26T05:35:53;99351.66;;;15.94;69.74
23281;BME280;11809;56.390;-3.266;2022-10-26T05:38:21;99350.69;;;15.95;69.90
23281;BME280;11809;56.390;-3.266;2022-10-26T05:40:52;99347.06;;;15.96;69.96
23281;BME280;11809;56.390;-3.266;2022-10-26T05:43:21;99337.31;;;15.96;70.07
23281;BME280;11809;56.390;-3.266;2022-10-26T05:45:49;99330.22;;;15.97;69.93
23281;BME280;11809;56.390;-3.266;2022-10-26T05:48:16;99330.22;;;15.97;69.82
23281;BME280;11809;56.390;-3.266;2022-10-26T05:50:43;99322.28;;;15.97;69.81
23281;BME280;11809;56.390;-3.266;2022-10-26T05:53:10;99322.28;;;15.97;69.62
23281;BME280;11809;56.390;-3.266;2022-10-26T05:55:38;99318.63;;;15.98;69.51
23281;BME280;11809;56.390;-3.266;2022-10-26T05:58:09;99319.50;;;15.98;69.64
23281;BME280;11809;56.390;-3.266;2022-10-26T06:00:46;99312.25;;;16.00;69.43
23281;BME280;11809;56.390;-3.266;2022-10-26T06:05:56;99306.94;;;16.00;69.60
23281;BME280;11809;56.390;-3.266;2022-10-26T06:08:25;99314.78;;;16.02;69.69
23281;BME280;11809;56.390;-3.266;2022-10-26T06:10:54;99310.28;;;16.02;69.71
23281;BME280;11809;56.390;-3.266;2022-10-26T06:13:21;99303.19;;;16.03;69.85
23281;BME280;11809;56.390;-3.266;2022-10-26T06:18:36;99300.19;;;16.07;69.97
23281;BME280;11809;56.390;-3.266;2022-10-26T06:27:01;99302.53;;;16.10;70.16
23281;BME280;11809;56.390;-3.266;2022-10-26T06:32:22;99286.38;;;16.13;70.16
23281;BME280;11809;56.390;-3.266;2022-10-26T06:35:41;99293.63;;;16.11;70.17
23281;BME280;11809;56.390;-3.266;2022-10-26T06:37:48;99285.09;;;16.08;69.84
23281;BME280;11809;56.390;-3.266;2022-10-26T06:40:16;99283.53;;;16.05;69.87
23281;BME280;11809;56.390;-3.266;2022-10-26T06:42:43;99284.53;;;16.04;70.05
23281;BME280;11809;56.390;-3.266;2022-10-26T06:45:12;99288.84;;;16.05;69.92
23281;BME280;11809;56.390;-3.266;2022-10-26T06:48:04;99279.09;;;16.06;69.94
23281;BME280;11809;56.390;-3.266;2022-10-26T06:55:42;99297.03;;;16.02;69.64
23281;BME280;11809;56.390;-3.266;2022-10-26T06:58:15;99294.41;;;16.02;69.67
23281;BME280;11809;56.390;-3.266;2022-10-26T07:00:44;99298.03;;;16.01;69.70
23281;BME280;11809;56.390;-3.266;2022-10-26T07:03:12;99299.97;;;15.99;69.78
23281;BME280;11809;56.390;-3.266;2022-10-26T07:05:40;99298.28;;;15.98;69.83
23281;BME280;11809;56.390;-3.266;2022-10-26T07:08:07;99290.47;;;15.97;69.63
23281;BME280;11809;56.390;-3.266;2022-10-26T07:10:34;99289.63;;;15.96;69.60
23281;BME280;11809;56.390;-3.266;2022-10-26T07:13:08;99288.78;;;15.96;69.67
23281;BME280;11809;56.390;-3.266;2022-10-26T07:15:36;99280.00;;;15.95;69.72
23281;BME280;11809;56.390;-3.266;2022-10-26T07:18:05;99270.34;;;15.94;69.80
23281;BME280;11809;56.390;-3.266;2022-10-26T07:20:39;99280.94;;;15.94;69.72
23281;BME280;11809;56.390;-3.266;2022-10-26T07:23:08;99281.09;;;15.93;69.73
23281;BME280;11809;56.390;-3.266;2022-10-26T07:25:41;99278.44;;;15.93;69.77
23281;BME280;11809;56.390;-3.266;2022-10-26T07:28:09;99275.78;;;15.93;69.77
23281;BME280;11809;56.390;-3.266;2022-10-26T07:30:37;99275.94;;;15.91;69.96
23281;BME280;11809;56.390;-3.266;2022-10-26T07:33:09;99273.28;;;15.91;69.88
23281;BME280;11809;56.390;-3.266;2022-10-26T07:35:37;99282.19;;;15.90;70.03
23281;BME280;11809;56.390;-3.266;2022-10-26T07:38:04;99279.53;;;15.90;69.86
23281;BME280;11809;56.390;-3.266;2022-10-26T07:40:32;99279.53;;;15.90;70.01
23281;BME280;11809;56.390;-3.266;2022-10-26T07:42:59;99273.53;;;15.88;70.16
23281;BME280;11809;56.390;-3.266;2022-10-26T07:45:27;99272.53;;;15.89;70.07
23281;BME280;11809;56.390;-3.266;2022-10-26T07:47:55;99268.09;;;15.90;70.08
23281;BME280;11809;56.390;-3.266;2022-10-26T07:50:23;99265.34;;;15.91;69.97
23281;BME280;11809;56.390;-3.266;2022-10-26T07:52:50;99253.03;;;15.90;70.09
23281;BME280;11809;56.390;-3.266;2022-10-26T07:55:18;99253.03;;;15.90;70.09
23281;BME280;11809;56.390;-3.266;2022-10-26T07:57:45;99240.75;;;15.89;70.22
23281;BME280;11809;56.390;-3.266;2022-10-26T08:00:20;99253.91;;;15.91;70.25
23281;BME280;11809;56.390;-3.266;2022-10-26T08:02:47;99257.38;;;15.91;70.24
23281;BME280;11809;56.390;-3.266;2022-10-26T08:05:14;99258.94;;;15.94;70.03
23281;BME280;11809;56.390;-3.266;2022-10-26T08:07:42;99243.84;;;15.94;70.13
23281;BME280;11809;56.390;-3.266;2022-10-26T08:10:10;99246.50;;;15.94;70.21
23281;BME280;11809;56.390;-3.266;2022-10-26T08:12:38;99251.00;;;15.94;70.18
23281;BME280;11809;56.390;-3.266;2022-10-26T08:15:06;99251.81;;;15.94;70.28
23281;BME280;11809;56.390;-3.266;2022-10-26T08:17:33;99239.53;;;15.93;70.41
23281;BME280;11809;56.390;-3.266;2022-10-26T08:20:00;99242.31;;;15.92;70.35
23281;BME280;11809;56.390;-3.266;2022-10-26T08:22:30;99232.81;;;15.89;70.50
23281;BME280;11809;56.390;-3.266;2022-10-26T08:24:57;99236.44;;;15.88;70.36
23281;BME280;11809;56.390;-3.266;2022-10-26T08:27:24;99225.13;;;15.86;70.48
23281;BME280;11809;56.390;-3.266;2022-10-26T08:29:51;99229.59;;;15.86;70.24
23281;BME280;11809;56.390;-3.266;2022-10-26T08:32:18;99220.81;;;15.85;70.33
23281;BME280;11809;56.390;-3.266;2022-10-26T08:34:45;99239.09;;;15.88;70.37
23281;BME280;11809;56.390;-3.266;2022-10-26T08:37:12;99256.09;;;15.86;70.27
23281;BME280;11809;56.390;-3.266;2022-10-26T08:39:39;99264.16;;;15.84;70.47
23281;BME280;11809;56.390;-3.266;2022-10-26T08:42:23;99265.84;;;15.85;70.37
23281;BME280;11809;56.390;-3.266;2022-10-26T08:44:58;99275.59;;;15.85;70.42
23281;BME280;11809;56.390;-3.266;2022-10-26T08:47:34;99310.16;;;15.83;70.41
23281;BME280;11809;56.390;-3.266;2022-10-26T08:50:09;99339.31;;;15.83;70.24
23281;BME280;11809;56.390;-3.266;2022-10-26T08:52:59;99326.06;;;15.83;70.30
23281;BME280;11809;56.390;-3.266;2022-10-26T08:55:39;99335.94;;;15.81;70.44
23281;BME280;11809;56.390;-3.266;2022-10-26T08:58:32;99328.97;;;15.80;70.37
23281;BME280;11809;56.390;-3.266;2022-10-26T09:01:03;99315.72;;;15.80;70.49
23281;BME280;11809;56.390;-3.266;2022-10-26T09:03:31;99318.47;;;15.78;70.28
23281;BME280;11809;56.390;-3.266;2022-10-26T09:14:28;99335.47;;;15.76;70.25
23281;BME280;11809;56.390;-3.266;2022-10-26T09:17:27;99350.66;;;15.74;70.37
23281;BME280;11809;56.390;-3.266;2022-10-26T09:25:23;99332.09;;;15.74;70.39
23281;BME280;11809;56.390;-3.266;2022-10-26T09:27:57;99335.59;;;15.74;70.28
23281;BME280;11809;56.390;-3.266;2022-10-26T09:30:25;99325.97;;;15.73;70.29
23281;BME280;11809;56.390;-3.266;2022-10-26T09:32:58;99321.75;;;15.71;70.24
23281;BME280;11809;56.390;-3.266;2022-10-26T09:35:30;99312.84;;;15.72;70.44
23281;BME280;11809;56.390;-3.266;2022-10-26T09:38:24;99307.56;;;15.72;70.33
23281;BME280;11809;56.390;-3.266;2022-10-26T09:44:01;99298.91;;;15.70;70.28
23281;BME280;11809;56.390;-3.266;2022-10-26T09:46:33;99298.91;;;15.70;70.40
23281;BME280;11809;56.390;-3.266;2022-10-26T09:49:09;99292.88;;;15.68;70.24
23281;BME280;11809;56.390;-3.266;2022-10-26T09:51:37;99293.88;;;15.67;70.42
23281;BME280;11809;56.390;-3.266;2022-10-26T09:54:14;99298.31;;;15.66;70.31
23281;BME280;11809;56.390;-3.266;2022-10-26T09:56:47;99302.75;;;15.66;70.32
23281;BME280;11809;56.390;-3.266;2022-10-26T09:59:17;99314.31;;;15.65;70.34
23281;BME280;11809;56.390;-3.266;2022-10-26T10:01:45;99330.19;;;15.65;70.39
23281;BME280;11809;56.390;-3.266;2022-10-26T10:06:40;99335.50;;;15.65;70.56
23281;BME280;11809;56.390;-3.266;2022-10-26T10:09:22;99340.09;;;15.63;70.56
23281;BME280;11809;56.390;-3.266;2022-10-26T10:14:27;99355.97;;;15.63;70.54
23281;BME280;11809;56.390;-3.266;2022-10-26T10:16:56;99361.28;;;15.63;70.46
23281;BME280;11809;56.390;-3.266;2022-10-26T10:19:31;99366.56;;;15.63;70.52
23281;BME280;11809;56.390;-3.266;2022-10-26T10:24:39;99362.81;;;15.65;70.43
23281;BME280;11809;56.390;-3.266;2022-10-26T10:32:16;99370.88;;;15.75;70.46
23281;BME280;11809;56.390;-3.266;2022-10-26T10:34:47;99373.41;;;15.76;70.25
23281;BME280;11809;56.390;-3.266;2022-10-26T10:37:40;99370.63;;;15.78;70.49
23281;BME280;11809;56.390;-3.266;2022-10-26T10:40:38;99364.34;;;15.79;70.40
23281;BME280;11809;56.390;-3.266;2022-10-26T10:43:13;99373.16;;;15.80;70.44
23281;BME280;11809;56.390;-3.266;2022-10-26T10:45:46;99380.16;;;15.81;70.57
23281;BME280;11809;56.390;-3.266;2022-10-26T10:48:19;99388.91;;;15.81;70.41
23281;BME280;11809;56.390;-3.266;2022-10-26T10:51:04;99390.75;;;15.81;70.40
23281;BME280;11809;56.390;-3.266;2022-10-26T11:07:24;99386.53;;;15.78;70.36
23281;BME280;11809;56.390;-3.266;2022-10-26T11:09:53;99384.84;;;15.77;70.35
23281;BME280;11809;56.390;-3.266;2022-10-26T11:12:26;99395.44;;;15.77;70.34
23281;BME280;11809;56.390;-3.266;2022-10-26T11:14:59;99381.47;;;15.75;70.56
23281;BME280;11809;56.390;-3.266;2022-10-26T11:18:16;99383.13;;;15.76;70.22
23281;BME280;11809;56.390;-3.266;2022-10-26T11:20:24;99391.09;;;15.76;70.51
23281;BME280;11809;56.390;-3.266;2022-10-26T11:25:27;99388.44;;;15.76;70.44
23281;BME280;11809;56.390;-3.266;2022-10-26T11:28:02;99372.53;;;15.76;70.18
23281;BME280;11809;56.390;-3.266;2022-10-26T11:30:32;99379.53;;;15.77;70.19
23281;BME280;11809;56.390;-3.266;2022-10-26T11:33:08;99376.91;;;15.77;70.25
23281;BME280;11809;56.390;-3.266;2022-10-26T11:36:01;99369.91;;;15.76;70.41
23281;BME280;11809;56.390;-3.266;2022-10-26T11:38:46;99379.53;;;15.77;70.33
23281;BME280;11809;56.390;-3.266;2022-10-26T11:41:32;99380.38;;;15.77;70.54
23281;BME280;11809;56.390;-3.266;2022-10-26T11:46:53;99378.31;;;15.81;70.48
23281;BME280;11809;56.390;-3.266;2022-10-26T11:49:33;99391.56;;;15.81;70.65
23281;BME280;11809;56.390;-3.266;2022-10-26T11:52:23;99380.97;;;15.81;70.66
23281;BME280;11809;56.390;-3.266;2022-10-26T11:54:57;99389.88;;;15.80;70.41
23281;BME280;11809;56.390;-3.266;2022-10-26T11:57:28;99384.59;;;15.80;70.56
23281;BME280;11809;56.390;-3.266;2022-10-26T12:02:38;99395.19;;;15.80;70.20
23281;BME280;11809;56.390;-3.266;2022-10-26T12:07:55;99394.19;;;15.81;70.71
23281;BME280;11809;56.390;-3.266;2022-10-26T12:10:32;99399.50;;;15.81;70.30
23281;BME280;11809;56.390;-3.266;2022-10-26T12:15:57;99384.34;;;15.83;70.28
23281;BME280;11809;56.390;-3.266;2022-10-26T12:21:23;99376.00;;;15.88;70.45
23281;BME280;11809;56.390;-3.266;2022-10-26T12:34:06;99385.28;;;15.93;70.48
23281;BME280;11809;56.390;-3.266;2022-10-26T12:46:58;99385.72;;;15.98;70.39
23281;BME280;11809;56.390;-3.266;2022-10-26T12:52:42;99391.50;;;16.03;70.37
23281;BME280;11809;56.390;-3.266;2022-10-26T13:00:30;99403.03;;;16.02;70.47
23281;BME280;11809;56.390;-3.266;2022-10-26T13:03:33;99420.63;;;16.03;70.49
23281;BME280;11809;56.390;-3.266;2022-10-26T13:06:22;99421.34;;;16.05;70.40
23281;BME280;11809;56.390;-3.266;2022-10-26T13:08:55;99418.84;;;16.04;70.26
23281;BME280;11809;56.390;-3.266;2022-10-26T13:11:31;99409.78;;;16.06;70.15
23281;BME280;11809;56.390;-3.266;2022-10-26T13:14:04;99416.03;;;16.05;70.31
23281;BME280;11809;56.390;-3.266;2022-10-26T13:16:33;99408.84;;;16.07;70.05
23281;BME280;11809;56.390;-3.266;2022-10-26T13:19:00;99411.50;;;16.07;70.24
23281;BME280;11809;56.390;-3.266;2022-10-26T13:21:27;99419.44;;;16.07;70.02
23281;BME280;11809;56.390;-3.266;2022-10-26T13:26:27;99419.16;;;16.10;70.13
23281;BME280;11809;56.390;-3.266;2022-10-26T13:33:51;99441.22;;;16.11;70.08
23281;BME280;11809;56.390;-3.266;2022-10-26T13:36:33;99429.66;;;16.12;70.26
23281;BME280;11809;56.390;-3.266;2022-10-26T13:39:09;99444.56;;;16.13;70.10
23281;BME280;11809;56.390;-3.266;2022-10-26T13:41:41;99442.91;;;16.12;70.11
23281;BME280;11809;56.390;-3.266;2022-10-26T13:44:41;99451.56;;;16.14;70.06
23281;BME280;11809;56.390;-3.266;2022-10-26T13:47:15;99459.50;;;16.14;70.15
23281;BME280;11809;56.390;-3.266;2022-10-26T13:49:50;99433.97;;;16.13;69.92
23281;BME280;11809;56.390;-3.266;2022-10-26T13:52:24;99457.72;;;16.14;70.05
23281;BME280;11809;56.390;-3.266;2022-10-26T13:54:57;99458.56;;;16.15;69.88
23281;BME280;11809;56.390;-3.266;2022-10-26T13:57:41;99458.56;;;16.15;69.78
23281;BME280;11809;56.390;-3.266;2022-10-26T14:02:41;99473.63;;;16.14;69.99
23281;BME280;11809;56.390;-3.266;2022-10-26T14:05:15;99478.91;;;16.14;69.97
23281;BME280;11809;56.390;-3.266;2022-10-26T14:07:52;99488.53;;;16.15;69.90
23281;BME280;11809;56.390;-3.266;2022-10-26T14:10:40;99502.78;;;16.14;69.73
23281;BME280;11809;56.390;-3.266;2022-10-26T14:13:13;99497.47;;;16.14;69.95
23281;BME280;11809;56.390;-3.266;2022-10-26T14:15:44;99512.38;;;16.15;69.93
23281;BME280;11809;56.390;-3.266;2022-10-26T14:18:16;99502.06;;;16.12;69.90
23281;BME280;11809;56.390;-3.266;2022-10-26T14:21:05;99505.41;;;16.14;69.98
23281;BME280;11809;56.390;-3.266;2022-10-26T14:23:35;99511.81;;;16.12;69.95
23281;BME280;11809;56.390;-3.266;2022-10-26T14:26:03;99520.34;;;16.15;69.81
23281;BME280;11809;56.390;-3.266;2022-10-26T14:28:32;99516.88;;;16.15;69.80
23281;BME280;11809;56.390;-3.266;2022-10-26T14:31:13;99516.97;;;16.13;69.77
23281;BME280;11809;56.390;-3.266;2022-10-26T14:33:46;99533.03;;;16.12;69.86
23281;BME280;11809;56.390;-3.266;2022-10-26T14:36:14;99515.19;;;16.14;69.86
23281;BME280;11809;56.390;-3.266;2022-10-26T14:38:44;99541.69;;;16.14;69.88
23281;BME280;11809;56.390;-3.266;2022-10-26T14:41:16;99547.84;;;16.14;69.86
23281;BME280;11809;56.390;-3.266;2022-10-26T14:43:43;99532.88;;;16.13;69.79
23281;BME280;11809;56.390;-3.266;2022-10-26T14:46:15;99536.25;;;16.15;69.92
23281;BME280;11809;56.390;-3.266;2022-10-26T14:48:58;99554.81;;;16.15;69.90
23281;BME280;11809;56.390;-3.266;2022-10-26T14:51:28;99545.91;;;16.16;69.77
23281;BME280;11809;56.390;-3.266;2022-10-26T14:53:57;99540.59;;;16.16;69.92
23281;BME280;11809;56.390;-3.266;2022-10-26T14:56:37;99549.50;;;16.15;70.09
23281;BME280;11809;56.390;-3.266;2022-10-26T14:59:22;99555.66;;;16.16;69.88
23281;BME280;11809;56.390;-3.266;2022-10-26T15:01:57;99567.09;;;16.16;69.85
23281;BME280;11809;56.390;-3.266;2022-10-26T15:04:30;99554.69;;;16.17;69.78
23281;BME280;11809;56.390;-3.266;2022-10-26T15:07:22;99569.88;;;16.15;69.99
23281;BME280;11809;56.390;-3.266;2022-10-26T15:09:52;99560.94;;;16.16;70.00
23281;BME280;11809;56.390;-3.266;2022-10-26T15:14:46;99561.94;;;16.15;69.81
23281;BME280;11809;56.390;-3.266;2022-10-26T15:17:41;99572.63;;;16.13;69.85
23281;BME280;11809;56.390;-3.266;2022-10-26T15:20:28;99570.84;;;16.14;69.77
23281;BME280;11809;56.390;-3.266;2022-10-26T15:23:04;99579.75;;;16.13;69.90
23281;BME280;11809;56.390;-3.266;2022-10-26T15:25:32;99582.41;;;16.13;69.83
23281;BME280;11809;56.390;-3.266;2022-10-26T15:28:28;99587.69;;;16.13;69.91
23281;BME280;11809;56.390;-3.266;2022-10-26T15:38:39;99586.88;;;16.12;69.86
23281;BME280;11809;56.390;-3.266;2022-10-26T15:41:22;99581.56;;;16.12;69.93
23281;BME280;11809;56.390;-3.266;2022-10-26T15:43:53;99594.84;;;16.12;69.90